Ivs Tembe — 9V2741 — position and weather

sailwx.info

Track history (hours):
 
Tides and Currents Weather Stations Pressure Air Temp Water Temp Dewpoint Dewpoint Depression Visibility Wind Speed Wind Dir Waves Ship Positions

Ivs Tembe

Last reported at 2017-Nov-11 23:25 UTC. Time now 2017-Nov-25 07:51 UTC.
Position N 28°16' W 016°06'.
Warning: this ship's position is 13 days out of date.

Length 178 m; draft 9.9 m.

Type: Cargo ship. MMSI: 563933000.

Date/timePositionNaut miles runAvg speedWind from/ knotsBaromVisibWave heightAir tempDewpointWater temp
2017-Nov-11 23:25N 28°16' W 016°06'613.6
2017-Nov-11 23:00N 28°20' W 016°02'713.5
2017-Nov-11 22:30N 28°25' W 015°57'713.3
2017-Nov-11 22:00N 28°30' W 015°52'713.4
2017-Nov-11 21:30N 28°35' W 015°46'713.4
2017-Nov-11 21:00N 28°40' W 015°42'713.2
2017-Nov-11 20:30N 28°46' W 015°39'713.2
2017-Nov-11 20:00N 28°53' W 015°37'612.9
2017-Nov-11 19:30N 28°59' W 015°37'612.9
2017-Nov-11 19:00N 29°05' W 015°34'713.2
2017-Nov-11 18:30N 29°11' W 015°30'713.2
2017-Nov-11 18:00N 29°17' W 015°29'613.0
2017-Nov-11 17:30N 29°24' W 015°27'712.9
2017-Nov-11 17:00N 29°30' W 015°25'612.9
2017-Nov-11 16:30N 29°36' W 015°23'713.2
2017-Nov-11 16:00N 29°43' W 015°21'713.1
2017-Nov-11 15:30N 29°49' W 015°19'713.1
2017-Nov-11 15:00N 29°55' W 015°17'713.0
2017-Nov-11 14:30N 30°01' W 015°15'713.0
2017-Nov-11 14:00N 30°08' W 015°13'713.1
2017-Nov-11 13:30N 30°14' W 015°11'612.9
2017-Nov-11 13:00N 30°20' W 015°08'713.0
2017-Nov-11 12:30N 30°27' W 015°07'713.1
2017-Nov-11 12:00N 30°33' W 015°05'713.0
2017-Nov-11 11:30N 30°39' W 015°04'712.9
2017-Nov-11 10:59N 30°46' W 015°02'612.6
2017-Nov-11 10:30N 30°51' W 014°59'712.7
2017-Nov-11 09:59N 30°58' W 014°57'612.6
2017-Nov-11 09:30N 31°04' W 014°55'713.1
2017-Nov-11 09:00N 31°10' W 014°53'713.0
2017-Nov-11 08:30N 31°16' W 014°51'713.1
2017-Nov-11 08:00N 31°22' W 014°49'2313.1
2017-Nov-11 06:14N 31°45' W 014°41'312.8
2017-Nov-11 05:59N 31°48' W 014°41'812.5
2017-Nov-11 05:20N 31°56' W 014°38'6012.4
2017-Nov-11 00:30N 32°53' W 014°18'7912.4
2017-Nov-10 18:11N 34°09' W 013°52'  
2017-Nov-06 02:30N 55°43' W 006°47'5 9.4
2017-Nov-06 02:00N 55°47' W 006°52'610.5
2017-Nov-06 01:28N 55°52' W 006°58'  
Track history (hours):
 
Tides and Currents Weather Stations Pressure Air Temp Water Temp Dewpoint Dewpoint Depression Visibility Wind Speed Wind Dir Waves Ship Positions

Ivs Tembe

Last reported at 2017-Nov-11 23:25 UTC. Time now 2017-Nov-25 07:51 UTC.
Position N 28°16' W 016°06'.
Warning: this ship's position is 13 days out of date.

Length 178 m; draft 9.9 m.

Type: Cargo ship. MMSI: 563933000.

Date/timePositionNaut miles runAvg speedWind from/ knotsBaromVisibWave heightAir tempDewpointWater temp
2017-Nov-11 23:25N 28°16' W 016°06'613.6
2017-Nov-11 23:00N 28°20' W 016°02'713.5
2017-Nov-11 22:30N 28°25' W 015°57'713.3
2017-Nov-11 22:00N 28°30' W 015°52'713.4
2017-Nov-11 21:30N 28°35' W 015°46'713.4
2017-Nov-11 21:00N 28°40' W 015°42'713.2
2017-Nov-11 20:30N 28°46' W 015°39'713.2
2017-Nov-11 20:00N 28°53' W 015°37'612.9
2017-Nov-11 19:30N 28°59' W 015°37'612.9
2017-Nov-11 19:00N 29°05' W 015°34'713.2
2017-Nov-11 18:30N 29°11' W 015°30'713.2
2017-Nov-11 18:00N 29°17' W 015°29'613.0
2017-Nov-11 17:30N 29°24' W 015°27'712.9
2017-Nov-11 17:00N 29°30' W 015°25'612.9
2017-Nov-11 16:30N 29°36' W 015°23'713.2
2017-Nov-11 16:00N 29°43' W 015°21'713.1
2017-Nov-11 15:30N 29°49' W 015°19'713.1
2017-Nov-11 15:00N 29°55' W 015°17'713.0
2017-Nov-11 14:30N 30°01' W 015°15'713.0
2017-Nov-11 14:00N 30°08' W 015°13'713.1
2017-Nov-11 13:30N 30°14' W 015°11'612.9
2017-Nov-11 13:00N 30°20' W 015°08'713.0
2017-Nov-11 12:30N 30°27' W 015°07'713.1
2017-Nov-11 12:00N 30°33' W 015°05'713.0
2017-Nov-11 11:30N 30°39' W 015°04'712.9
2017-Nov-11 10:59N 30°46' W 015°02'612.6
2017-Nov-11 10:30N 30°51' W 014°59'712.7
2017-Nov-11 09:59N 30°58' W 014°57'612.6
2017-Nov-11 09:30N 31°04' W 014°55'713.1
2017-Nov-11 09:00N 31°10' W 014°53'713.0
2017-Nov-11 08:30N 31°16' W 014°51'713.1
2017-Nov-11 08:00N 31°22' W 014°49'2313.1
2017-Nov-11 06:14N 31°45' W 014°41'312.8
2017-Nov-11 05:59N 31°48' W 014°41'812.5
2017-Nov-11 05:20N 31°56' W 014°38'6012.4
2017-Nov-11 00:30N 32°53' W 014°18'7912.4
2017-Nov-10 18:11N 34°09' W 013°52'  
2017-Nov-06 02:30N 55°43' W 006°47'5 9.4
2017-Nov-06 02:00N 55°47' W 006°52'610.5
2017-Nov-06 01:28N 55°52' W 006°58'  

Dump ship's entire track history